createdAt,value
2023-01-18T00:00:21.816Z,5.85
2023-01-18T00:02:49.304Z,5.75
2023-01-18T00:05:16.221Z,7.28
2023-01-18T00:07:43.029Z,5.72
2023-01-18T00:10:10.256Z,7.15
2023-01-18T00:12:36.956Z,6.07
2023-01-18T00:15:04.797Z,6.32
2023-01-18T00:17:31.532Z,6.45
2023-01-18T00:19:58.426Z,6.57
2023-01-18T00:22:25.182Z,7.00
2023-01-18T00:24:51.895Z,7.00
2023-01-18T00:27:18.674Z,8.48
2023-01-18T00:29:45.399Z,6.80
2023-01-18T00:32:14.257Z,7.10
2023-01-18T00:34:41.772Z,7.10
2023-01-18T00:37:08.571Z,6.45
2023-01-18T00:39:35.350Z,7.50
2023-01-18T00:42:20.602Z,6.30
2023-01-18T00:44:47.333Z,6.10
2023-01-18T00:47:14.139Z,6.93
2023-01-18T00:49:40.919Z,5.10
2023-01-18T00:52:07.703Z,6.80
2023-01-18T00:54:34.437Z,7.22
2023-01-18T00:57:01.207Z,7.07
2023-01-18T00:59:27.942Z,6.95
2023-01-18T01:01:54.809Z,6.03
2023-01-18T01:04:40.187Z,8.30
2023-01-18T01:07:06.915Z,7.00
2023-01-18T01:09:33.695Z,6.35
2023-01-18T01:12:19.179Z,6.15
2023-01-18T01:15:06.260Z,6.70
2023-01-18T01:17:54.809Z,5.55
2023-01-18T01:20:41.785Z,6.18
2023-01-18T01:23:39.204Z,6.80
2023-01-18T01:26:08.088Z,7.43
2023-01-18T01:28:40.512Z,7.70
2023-01-18T01:31:10.242Z,7.57
2023-01-18T01:33:37.817Z,6.38
2023-01-18T01:36:10.036Z,4.72
2023-01-18T01:41:09.546Z,6.68
2023-01-18T01:43:39.058Z,6.30
2023-01-18T01:46:36.187Z,5.90
2023-01-18T01:49:12.509Z,5.50
2023-01-18T01:52:03.136Z,7.97
2023-01-18T01:54:34.271Z,5.80
2023-01-18T01:57:07.230Z,5.88
2023-01-18T01:59:39.334Z,4.85
2023-01-18T02:02:06.974Z,4.47
2023-01-18T02:04:34.813Z,5.05
2023-01-18T02:07:01.555Z,5.97
2023-01-18T02:09:28.302Z,7.32
2023-01-18T02:11:55.746Z,5.28
2023-01-18T02:14:27.611Z,5.10
2023-01-18T02:17:06.622Z,5.78
2023-01-18T02:19:45.557Z,7.32
2023-01-18T02:22:44.602Z,6.20
2023-01-18T02:25:49.624Z,5.88
2023-01-18T02:28:21.486Z,5.60
2023-01-18T02:30:54.373Z,6.30
2023-01-18T02:34:04.095Z,6.80
2023-01-18T02:36:57.197Z,6.95
2023-01-18T02:39:40.383Z,7.38
2023-01-18T02:42:36.597Z,6.25
2023-01-18T02:45:27.661Z,7.80
2023-01-18T02:47:55.437Z,7.43
2023-01-18T02:50:27.839Z,6.55
2023-01-18T02:52:55.174Z,8.38
2023-01-18T02:55:41.486Z,7.55
2023-01-18T02:58:18.919Z,6.25
2023-01-18T03:01:10.810Z,7.25
2023-01-18T03:03:41.033Z,9.90
2023-01-18T03:06:08.813Z,7.75
2023-01-18T03:08:38.747Z,7.60
2023-01-18T03:11:34.410Z,7.15
2023-01-18T03:14:07.946Z,5.22
2023-01-18T03:16:58.535Z,6.65
2023-01-18T03:19:59.822Z,5.88
2023-01-18T03:22:46.566Z,6.47
2023-01-18T03:25:17.998Z,6.22
2023-01-18T03:28:06.318Z,6.80
2023-01-18T03:30:52.875Z,7.03
2023-01-18T03:33:41.586Z,6.80
2023-01-18T03:36:12.780Z,6.63
2023-01-18T03:38:43.106Z,6.07
2023-01-18T03:41:11.842Z,6.75
2023-01-18T03:43:41.767Z,5.80
2023-01-18T03:46:09.006Z,6.97
2023-01-18T03:48:37.074Z,6.38
2023-01-18T03:51:31.172Z,8.02
2023-01-18T03:54:16.131Z,7.90
2023-01-18T03:56:49.777Z,7.13
2023-01-18T03:59:16.955Z,7.88
2023-01-18T04:01:48.293Z,8.95
2023-01-18T04:04:15.360Z,10.80
2023-01-18T04:06:42.467Z,10.43
2023-01-18T04:09:09.485Z,12.30
2023-01-18T04:11:36.279Z,9.77
2023-01-18T04:14:03.083Z,10.23
2023-01-18T04:16:29.875Z,10.55
2023-01-18T04:18:56.619Z,11.73
2023-01-18T04:21:23.420Z,11.02
2023-01-18T04:23:50.252Z,11.82
2023-01-18T04:26:17.004Z,13.52
2023-01-18T04:28:43.762Z,11.27
2023-01-18T04:31:10.567Z,10.68
2023-01-18T04:33:37.359Z,10.82
2023-01-18T04:36:04.353Z,9.70
2023-01-18T04:38:31.125Z,10.10
2023-01-18T04:41:03.004Z,11.15
2023-01-18T04:43:29.888Z,10.90
2023-01-18T04:45:57.184Z,8.65
2023-01-18T04:48:24.781Z,9.88
2023-01-18T04:50:52.171Z,10.23
2023-01-18T04:53:19.446Z,8.68
2023-01-18T04:55:46.538Z,10.18
2023-01-18T04:58:13.386Z,10.35
2023-01-18T05:00:40.258Z,8.90
2023-01-18T05:03:11.697Z,7.50
2023-01-18T05:05:38.971Z,7.70
2023-01-18T05:08:05.725Z,7.57
2023-01-18T05:10:33.654Z,6.75
2023-01-18T05:13:00.978Z,6.78
2023-01-18T05:15:30.658Z,6.13
2023-01-18T05:17:57.379Z,8.07
2023-01-18T05:20:24.139Z,6.80
2023-01-18T05:22:50.853Z,8.82
2023-01-18T05:25:17.905Z,6.75
2023-01-18T05:27:44.698Z,7.70
2023-01-18T05:30:12.671Z,6.20
2023-01-18T05:32:39.560Z,6.35
2023-01-18T05:35:06.897Z,5.88
2023-01-18T05:37:33.641Z,8.13
2023-01-18T05:40:00.471Z,6.35
2023-01-18T05:42:27.246Z,6.25
2023-01-18T05:44:54.297Z,8.68
2023-01-18T05:47:21.045Z,7.75
2023-01-18T05:49:47.772Z,6.25
2023-01-18T05:52:14.518Z,6.82
2023-01-18T05:54:41.722Z,7.85
2023-01-18T05:57:08.745Z,8.02
2023-01-18T05:59:35.530Z,7.97
2023-01-18T06:02:03.559Z,7.15
2023-01-18T06:04:30.401Z,8.25
2023-01-18T06:06:57.227Z,6.53
2023-01-18T06:09:24.007Z,7.30
2023-01-18T06:11:50.745Z,8.10
2023-01-18T06:14:17.490Z,8.98
2023-01-18T06:16:44.319Z,7.25
2023-01-18T06:19:11.083Z,7.68
2023-01-18T06:21:37.808Z,8.30
2023-01-18T06:24:04.758Z,7.68
2023-01-18T06:26:31.517Z,6.60
2023-01-18T06:28:58.526Z,6.10
2023-01-18T06:31:25.403Z,6.82
2023-01-18T06:33:52.230Z,7.47
2023-01-18T06:36:18.983Z,7.18
2023-01-18T06:38:45.763Z,6.28
2023-01-18T06:41:12.496Z,5.60
2023-01-18T06:43:39.314Z,6.00
2023-01-18T06:46:08.323Z,5.30
2023-01-18T06:48:35.154Z,5.47
2023-01-18T06:51:04.997Z,4.80
2023-01-18T06:53:31.796Z,6.30
2023-01-18T06:56:01.875Z,4.28
2023-01-18T06:58:32.784Z,4.93
2023-01-18T07:01:00.597Z,4.53
2023-01-18T07:03:28.776Z,3.70
2023-01-18T07:06:00.388Z,5.57
2023-01-18T07:08:28.629Z,4.60
2023-01-18T07:10:55.401Z,4.80
2023-01-18T07:13:22.431Z,4.25
2023-01-18T07:15:54.847Z,3.50
2023-01-18T07:18:23.030Z,6.57
2023-01-18T07:21:01.469Z,5.85
2023-01-18T07:23:29.708Z,5.68
2023-01-18T07:26:00.843Z,3.70
2023-01-18T07:28:28.406Z,5.13
2023-01-18T07:30:55.197Z,7.43
2023-01-18T07:33:22.006Z,6.90
2023-01-18T07:35:48.727Z,5.40
2023-01-18T07:38:15.475Z,3.65
2023-01-18T07:40:42.239Z,7.43
2023-01-18T07:43:08.967Z,6.25
2023-01-18T07:45:37.563Z,4.45
2023-01-18T07:48:05.198Z,3.58
2023-01-18T07:50:35.456Z,3.15
2023-01-18T07:53:04.680Z,5.53
2023-01-18T07:55:32.878Z,3.00
2023-01-18T07:58:00.441Z,2.67
2023-01-18T08:00:27.746Z,4.63
2023-01-18T08:02:56.371Z,3.80
2023-01-18T08:05:26.858Z,4.05
2023-01-18T08:07:54.275Z,3.25
2023-01-18T08:10:21.718Z,3.88
2023-01-18T08:12:48.785Z,3.25
2023-01-18T08:15:15.646Z,4.03
2023-01-18T08:17:43.484Z,2.47
2023-01-18T08:20:10.879Z,1.85
2023-01-18T08:22:37.645Z,3.00
2023-01-18T08:25:04.823Z,3.15
2023-01-18T08:27:31.531Z,2.72
2023-01-18T08:29:58.597Z,3.40
2023-01-18T08:32:25.501Z,3.63
2023-01-18T08:34:52.244Z,3.15
2023-01-18T08:37:19.023Z,2.58
2023-01-18T08:39:45.849Z,3.03
2023-01-18T08:42:12.731Z,3.70
2023-01-18T08:44:39.585Z,2.90
2023-01-18T08:47:06.356Z,3.45
2023-01-18T08:49:33.486Z,3.00
2023-01-18T08:52:00.446Z,2.15
2023-01-18T08:54:27.400Z,2.38
2023-01-18T08:56:54.163Z,3.58
2023-01-18T08:59:21.190Z,2.75
2023-01-18T09:01:48.104Z,3.17
2023-01-18T09:04:14.871Z,2.60
2023-01-18T09:06:41.578Z,3.95
2023-01-18T09:09:08.371Z,4.38
2023-01-18T09:11:35.099Z,3.05
2023-01-18T09:14:02.348Z,2.20
2023-01-18T09:16:30.485Z,2.53
2023-01-18T09:18:58.445Z,2.72
2023-01-18T09:21:25.489Z,2.65
2023-01-18T09:23:52.261Z,1.83
2023-01-18T09:26:21.031Z,7.25
2023-01-18T09:28:51.088Z,1.90
2023-01-18T09:31:19.197Z,3.03
2023-01-18T09:33:52.913Z,2.03
2023-01-18T09:36:23.882Z,2.72
2023-01-18T09:38:50.841Z,3.10
2023-01-18T09:41:36.391Z,2.70
2023-01-18T09:44:13.107Z,3.75
2023-01-18T09:46:42.334Z,4.85
2023-01-18T09:49:35.114Z,4.38
2023-01-18T09:52:23.731Z,3.53
2023-01-18T09:55:13.397Z,4.15
2023-01-18T09:58:09.186Z,2.78
2023-01-18T10:00:41.715Z,3.83
2023-01-18T10:03:20.505Z,3.97
2023-01-18T10:06:15.571Z,4.70
2023-01-18T10:09:06.836Z,3.40
2023-01-18T10:11:47.433Z,4.38
2023-01-18T10:14:35.883Z,3.15
2023-01-18T10:17:09.084Z,3.65
2023-01-18T10:19:35.849Z,3.45
2023-01-18T10:22:13.107Z,3.50
2023-01-18T10:25:22.997Z,4.20
2023-01-18T10:27:58.994Z,3.83
2023-01-18T10:30:31.678Z,3.72
2023-01-18T10:33:03.089Z,4.78
2023-01-18T10:35:44.709Z,3.60
2023-01-18T10:38:20.099Z,4.07
2023-01-18T10:40:51.370Z,3.92
2023-01-18T10:43:23.567Z,4.37
2023-01-18T10:48:17.891Z,4.68
2023-01-18T10:50:47.252Z,4.07
2023-01-18T10:53:31.517Z,3.40
2023-01-18T10:56:03.066Z,2.88
2023-01-18T10:58:44.384Z,2.80
2023-01-18T11:01:24.501Z,3.35
2023-01-18T11:03:53.288Z,3.72
2023-01-18T11:06:21.348Z,4.03
2023-01-18T11:08:49.739Z,3.00
2023-01-18T11:11:47.416Z,2.75
2023-01-18T11:14:34.075Z,3.10
2023-01-18T11:17:11.787Z,4.15
2023-01-18T11:19:39.315Z,2.90
2023-01-18T11:22:16.056Z,2.80
2023-01-18T11:24:43.063Z,3.65
2023-01-18T11:27:20.268Z,3.70
2023-01-18T11:29:47.420Z,2.40
2023-01-18T11:32:26.646Z,2.88
2023-01-18T11:34:55.863Z,3.58
2023-01-18T11:37:30.071Z,2.95
2023-01-18T11:39:57.195Z,5.28
2023-01-18T11:42:31.540Z,3.08
2023-01-18T11:45:21.852Z,4.60
2023-01-18T11:48:30.241Z,3.50
2023-01-18T11:51:07.305Z,3.92
2023-01-18T11:54:22.647Z,4.93
2023-01-18T11:56:51.949Z,4.13
2023-01-18T11:59:35.045Z,4.28
2023-01-18T12:02:23.251Z,3.90
2023-01-18T12:04:56.125Z,3.28
2023-01-18T12:07:40.137Z,3.80
2023-01-18T12:10:15.592Z,3.30
2023-01-18T12:12:54.300Z,3.53
2023-01-18T12:15:43.522Z,4.82
2023-01-18T12:18:33.371Z,3.80
2023-01-18T12:21:27.638Z,4.20
2023-01-18T12:24:09.525Z,5.35
2023-01-18T12:26:54.192Z,3.80
2023-01-18T12:29:38.964Z,4.30
2023-01-18T12:32:44.982Z,3.13
2023-01-18T12:35:43.285Z,4.07
2023-01-18T12:38:33.721Z,4.28
2023-01-18T12:41:00.422Z,3.88
2023-01-18T12:43:41.774Z,6.75
2023-01-18T12:46:13.996Z,3.75
2023-01-18T12:51:18.819Z,4.65
2023-01-18T12:53:51.819Z,4.57
2023-01-18T12:56:40.311Z,5.15
2023-01-18T12:59:37.238Z,4.30
2023-01-18T13:02:24.908Z,3.83
2023-01-18T13:05:00.384Z,6.82
2023-01-18T13:07:37.675Z,4.90
2023-01-18T13:10:07.497Z,5.95
2023-01-18T13:12:34.374Z,6.75
2023-01-18T13:15:05.787Z,6.15
2023-01-18T13:17:57.767Z,5.35
2023-01-18T13:20:43.265Z,5.53
2023-01-18T13:23:25.318Z,5.78
2023-01-18T13:26:01.364Z,4.20
2023-01-18T13:28:28.678Z,6.60
2023-01-18T13:31:01.886Z,4.05
2023-01-18T13:33:37.593Z,5.20
2023-01-18T13:36:17.416Z,5.30
2023-01-18T13:38:57.875Z,6.68
2023-01-18T13:41:26.967Z,5.72
2023-01-18T13:44:26.884Z,4.10
2023-01-18T13:46:57.709Z,5.72
2023-01-18T13:49:37.691Z,5.32
2023-01-18T13:52:35.455Z,5.47
2023-01-18T13:55:23.080Z,6.78
2023-01-18T13:57:55.443Z,6.05
2023-01-18T14:00:26.296Z,5.57
2023-01-18T14:03:02.218Z,6.07
2023-01-18T14:05:42.233Z,7.40
2023-01-18T14:08:29.264Z,4.93
2023-01-18T14:11:20.738Z,4.65
2023-01-18T14:13:50.212Z,6.28
2023-01-18T14:16:23.168Z,5.82
2023-01-18T14:19:01.748Z,6.85
2023-01-18T14:21:43.770Z,4.88
2023-01-18T14:24:37.543Z,5.38
2023-01-18T14:27:06.305Z,4.93
2023-01-18T14:29:36.245Z,6.05
2023-01-18T14:32:07.869Z,5.50
2023-01-18T14:34:41.898Z,5.10
2023-01-18T14:37:26.374Z,4.45
2023-01-18T14:40:06.704Z,4.72
2023-01-18T14:42:35.191Z,4.18
2023-01-18T14:45:05.891Z,4.00
2023-01-18T14:47:34.613Z,9.15
2023-01-18T14:50:04.207Z,5.97
2023-01-18T14:52:34.018Z,6.70
2023-01-18T14:55:01.212Z,5.82
2023-01-18T14:57:28.005Z,5.25
2023-01-18T15:00:02.793Z,4.82
2023-01-18T15:02:37.669Z,4.30
2023-01-18T15:05:12.780Z,4.45
2023-01-18T15:07:40.818Z,4.32
2023-01-18T15:10:09.640Z,4.68
2023-01-18T15:12:38.711Z,4.47
2023-01-18T15:15:09.596Z,4.65
2023-01-18T15:17:37.601Z,6.10
2023-01-18T15:20:11.831Z,4.68
2023-01-18T15:22:40.849Z,5.50
2023-01-18T15:25:26.138Z,5.57
2023-01-18T15:27:54.240Z,4.85
2023-01-18T15:30:23.894Z,7.32
2023-01-18T15:32:58.074Z,5.47
2023-01-18T15:35:25.877Z,4.20
2023-01-18T15:37:52.760Z,5.63
2023-01-18T15:40:19.658Z,6.43
2023-01-18T15:43:08.813Z,6.97
2023-01-18T15:45:48.070Z,5.40
2023-01-18T15:48:21.227Z,7.25
2023-01-18T15:50:55.283Z,5.97
2023-01-18T15:53:34.439Z,5.10
2023-01-18T15:56:14.649Z,3.67
2023-01-18T15:58:55.679Z,4.35
2023-01-18T16:01:31.684Z,3.00
2023-01-18T16:04:22.697Z,2.47
2023-01-18T16:06:49.651Z,7.55
2023-01-18T16:09:18.095Z,3.08
2023-01-18T16:11:46.527Z,3.10
2023-01-18T16:14:25.863Z,5.15
2023-01-18T16:16:55.181Z,4.32
2023-01-18T16:19:29.725Z,5.13
2023-01-18T16:22:30.350Z,4.80
2023-01-18T16:25:07.312Z,5.03
2023-01-18T16:27:34.757Z,4.18
2023-01-18T16:30:17.814Z,4.53
2023-01-18T16:32:44.626Z,5.50
2023-01-18T16:35:17.952Z,5.40
2023-01-18T16:37:45.330Z,5.88
2023-01-18T16:40:20.236Z,12.27
2023-01-18T16:43:01.366Z,9.10
2023-01-18T16:45:29.858Z,8.90
2023-01-18T16:47:57.152Z,6.57
2023-01-18T16:50:24.262Z,6.95
2023-01-18T16:52:51.043Z,6.25
2023-01-18T16:55:18.319Z,6.53
2023-01-18T16:57:45.902Z,6.53
2023-01-18T17:00:22.073Z,10.38
2023-01-18T17:02:48.903Z,10.05
2023-01-18T17:05:16.247Z,10.15
2023-01-18T17:07:43.660Z,5.97
2023-01-18T17:10:40.703Z,9.30
2023-01-18T17:13:07.426Z,8.50
2023-01-18T17:15:40.832Z,7.07
2023-01-18T17:18:13.181Z,7.43
2023-01-18T17:20:40.183Z,9.45
2023-01-18T17:23:06.995Z,12.63
2023-01-18T17:25:33.965Z,6.32
2023-01-18T17:28:01.053Z,8.40
2023-01-18T17:30:28.594Z,8.40
2023-01-18T17:32:55.519Z,8.35
2023-01-18T17:35:24.224Z,8.20
2023-01-18T17:37:57.466Z,8.80
2023-01-18T17:40:39.600Z,6.85
2023-01-18T17:43:28.488Z,7.50
2023-01-18T17:46:01.916Z,7.10
2023-01-18T17:48:29.691Z,7.32
2023-01-18T17:50:56.554Z,8.00
2023-01-18T17:53:23.356Z,8.73
2023-01-18T17:55:50.418Z,7.30
2023-01-18T17:58:17.250Z,8.32
2023-01-18T18:00:44.684Z,8.20
2023-01-18T18:03:11.497Z,8.05
2023-01-18T18:05:38.386Z,7.63
2023-01-18T18:08:05.443Z,8.50
2023-01-18T18:10:32.303Z,8.77
2023-01-18T18:12:59.727Z,10.48
2023-01-18T18:15:27.387Z,8.73
2023-01-18T18:17:54.141Z,7.47
2023-01-18T18:20:24.434Z,9.07
2023-01-18T18:22:51.287Z,11.88
2023-01-18T18:25:18.512Z,8.77
2023-01-18T18:27:46.889Z,7.93
2023-01-18T18:30:14.680Z,7.25
2023-01-18T18:32:41.796Z,8.52
2023-01-18T18:35:23.549Z,10.65
2023-01-18T18:37:51.889Z,9.27
2023-01-18T18:40:19.005Z,9.25
2023-01-18T18:42:59.946Z,9.50
2023-01-18T18:45:27.360Z,9.80
2023-01-18T18:47:54.088Z,8.65
2023-01-18T18:50:20.983Z,12.65
2023-01-18T18:52:47.868Z,9.23
2023-01-18T18:55:14.794Z,8.23
2023-01-18T18:57:41.684Z,10.80
2023-01-18T19:00:09.048Z,9.68
2023-01-18T19:02:36.130Z,8.73
2023-01-18T19:05:03.364Z,8.27
2023-01-18T19:07:34.547Z,9.27
2023-01-18T19:10:01.316Z,8.77
2023-01-18T19:12:28.096Z,9.60
2023-01-18T19:14:54.939Z,12.82
2023-01-18T19:17:30.161Z,18.23
2023-01-18T19:19:57.360Z,13.15
2023-01-18T19:22:24.198Z,11.70
2023-01-18T19:24:51.086Z,10.43
2023-01-18T19:27:17.942Z,9.23
2023-01-18T19:29:44.785Z,9.93
2023-01-18T19:32:11.508Z,9.90
2023-01-18T19:34:38.625Z,14.63
2023-01-18T19:37:05.628Z,21.10
2023-01-18T19:39:34.883Z,14.60
2023-01-18T19:42:02.438Z,9.50
2023-01-18T19:44:29.584Z,10.52
2023-01-18T19:46:57.038Z,10.55
2023-01-18T19:49:26.469Z,8.95
2023-01-18T19:51:55.796Z,14.75
2023-01-18T19:54:22.824Z,15.30
2023-01-18T19:56:49.653Z,10.25
2023-01-18T19:59:16.949Z,10.75
2023-01-18T20:01:44.728Z,9.65
2023-01-18T20:04:13.547Z,11.32
2023-01-18T20:06:43.279Z,9.73
2023-01-18T20:09:19.583Z,11.05
2023-01-18T20:11:48.897Z,10.75
2023-01-18T20:14:15.788Z,11.18
2023-01-18T20:16:45.707Z,11.93
2023-01-18T20:19:14.283Z,11.02
2023-01-18T20:21:41.028Z,11.57
2023-01-18T20:24:08.802Z,10.68
2023-01-18T20:26:37.828Z,13.20
2023-01-18T20:29:06.916Z,13.73
2023-01-18T20:31:36.261Z,11.60
2023-01-18T20:34:03.751Z,11.90
2023-01-18T20:36:30.951Z,14.27
2023-01-18T20:38:57.837Z,10.50
2023-01-18T20:41:24.580Z,13.32
2023-01-18T20:43:51.383Z,11.32
2023-01-18T20:46:18.189Z,15.10
2023-01-18T20:48:45.008Z,11.23
2023-01-18T20:51:11.790Z,14.10
2023-01-18T20:53:38.558Z,21.33
2023-01-18T20:56:17.080Z,13.25
2023-01-18T20:58:54.681Z,14.05
2023-01-18T21:01:21.606Z,14.63
2023-01-18T21:03:54.299Z,13.88
2023-01-18T21:06:21.237Z,17.70
2023-01-18T21:08:47.963Z,15.40
2023-01-18T21:13:53.249Z,15.85
2023-01-18T21:16:20.162Z,14.60
2023-01-18T21:18:46.969Z,16.35
2023-01-18T21:21:16.701Z,18.52
2023-01-18T21:23:43.456Z,16.55
2023-01-18T21:26:11.886Z,15.52
2023-01-18T21:28:38.955Z,19.00
2023-01-18T21:31:05.857Z,19.35
2023-01-18T21:33:33.759Z,16.85
2023-01-18T21:36:17.826Z,18.08
2023-01-18T21:38:44.947Z,19.92
2023-01-18T21:41:30.700Z,16.10
2023-01-18T21:44:19.068Z,20.15
2023-01-18T21:46:51.100Z,21.13
2023-01-18T21:50:16.151Z,17.17
2023-01-18T21:52:42.922Z,16.20
2023-01-18T21:55:09.916Z,19.27
2023-01-18T21:57:37.513Z,20.10
2023-01-18T22:00:05.304Z,16.85
2023-01-18T22:02:33.347Z,16.92
2023-01-18T22:05:00.281Z,20.20
2023-01-18T22:07:28.240Z,12.48
2023-01-18T22:10:04.049Z,14.70
2023-01-18T22:12:32.686Z,14.30
2023-01-18T22:15:02.043Z,14.00
2023-01-18T22:17:29.087Z,16.02
2023-01-18T22:19:55.879Z,13.77
2023-01-18T22:22:22.611Z,12.07
2023-01-18T22:24:49.401Z,15.35
2023-01-18T22:27:16.146Z,14.75
2023-01-18T22:29:42.883Z,15.77
2023-01-18T22:32:09.596Z,13.15
2023-01-18T22:34:36.392Z,12.05
2023-01-18T22:37:03.551Z,13.90
2023-01-18T22:39:30.361Z,12.10
2023-01-18T22:41:57.393Z,12.05
2023-01-18T22:44:24.287Z,13.18
2023-01-18T22:46:51.148Z,12.65
2023-01-18T22:49:18.075Z,13.68
2023-01-18T22:51:44.872Z,12.68
2023-01-18T22:54:11.723Z,11.10
2023-01-18T22:56:38.463Z,11.35
2023-01-18T22:59:05.208Z,11.88
2023-01-18T23:01:33.261Z,13.23
2023-01-18T23:04:02.180Z,10.80
2023-01-18T23:06:42.446Z,12.48
2023-01-18T23:09:09.981Z,9.95
2023-01-18T23:11:36.891Z,10.00
2023-01-18T23:14:22.620Z,10.73
2023-01-18T23:17:07.800Z,12.25
2023-01-18T23:19:34.627Z,12.23
2023-01-18T23:22:06.974Z,10.90
2023-01-18T23:24:38.224Z,12.82
2023-01-18T23:27:07.093Z,14.55
2023-01-18T23:29:34.051Z,12.07
2023-01-18T23:32:00.903Z,12.63
2023-01-18T23:34:27.637Z,14.43
2023-01-18T23:36:54.876Z,11.95
2023-01-18T23:39:40.087Z,12.50
2023-01-18T23:42:25.286Z,11.93
2023-01-18T23:45:10.735Z,11.77
2023-01-18T23:47:56.312Z,11.15
2023-01-18T23:50:41.668Z,14.82
2023-01-18T23:53:31.543Z,13.25
2023-01-18T23:55:58.942Z,11.70
2023-01-18T23:58:26.152Z,9.40
